Data for 09/11/2006

Time Sea-Level Adjusted Pressure Absolute Pressure Temperature Relative Humidity Dew Point   
(mb) (inHg) (mb) (inHg) (C) (F) (%) (C) (F)
00:05 1022 30.18 852 25.16 15.3 59.5 29 -2.4 27.7
00:10 1022 30.18 852 25.16 14.9 58.8 29 -2.8 27
00:15 1022 30.18 852 25.16 14.4 57.8 33 -1.7 28.9
00:20 1022 30.18 852 25.16 13.6 56.5 37 -0.6 30.9
00:25 1022 30.18 852 25.16 13 55.5 39 -0.6 30.9
00:30 1022 30.18 852 25.16 12.9 55.2 40 -0.4 31.3
00:35 1022 30.18 852 25.16 12.6 54.6 40 -0.6 30.9
00:40 1023 30.21 852 25.16 12.3 54.1 45 0.7 33.3
00:45 1023 30.21 852 25.16 11.4 52.5 50 1.3 34.4
00:50 1023 30.21 852 25.16 10.7 51.3 50 0.7 33.2
00:55 1023 30.21 852 25.16 10.6 51.1 48 0.1 32.3
01:00 1023 30.21 852 25.16 10.7 51.2 46 -0.3 31.5
01:05 1023 30.21 852 25.16 11 51.8 46 -0.3 31.5
01:10 1023 30.21 852 25.16 11.1 52 44 -0.8 30.6
01:15 1023 30.21 852 25.16 11.1 52 43 -0.9 30.5
01:20 1023 30.21 852 25.16 11.2 52.1 42 -1.2 29.9
01:25 1023 30.21 852 25.16 11.2 52.1 43 -0.9 30.4
01:30 1023 30.21 852 25.16 11 51.7 43 -1.1 30.1
01:35 1023 30.21 852 25.16 10.9 51.5 42 -1.4 29.5
01:40 1023 30.21 852 25.16 11.1 51.9 42 -1.3 29.6
01:45 1023 30.21 852 25.16 11 51.9 40 -2 28.4
01:50 1023 30.21 852 25.16 11.3 52.4 39 -2.2 28
01:55 1023 30.21 852 25.16 11.3 52.4 37 -2.7 27.1
02:00 1023 30.21 852 25.16 11.3 52.4 35 -3.6 25.5
02:05 1023 30.21 852 25.16 11.7 53 35 -3.4 25.9
02:10 1023 30.21 852 25.16 11.7 53.1 34 -3.7 25.4
02:15 1023 30.21 852 25.16 11.6 52.9 33 -4.1 24.6
02:20 1023 30.21 852 25.16 11.5 52.7 34 -3.8 25.1
02:25 1023 30.21 852 25.16 11.2 52.1 35 -3.5 25.6
02:30 1023 30.21 852 25.16 10.9 51.7 36 -3.4 25.8
02:35 1023 30.21 852 25.16 10.7 51.3 37 -3.5 25.8
02:40 1023 30.21 852 25.16 10.7 51.2 37 -3.3 26
02:45 1023 30.21 852 25.16 10.7 51.3 37 -3.5 25.7
02:50 1023 30.21 852 25.16 10.7 51.2 35 -4 24.8
02:55 1023 30.21 852 25.16 10.6 51.1 36 -3.7 25.3
03:00 1023 30.21 852 25.16 10.4 50.7 38 -3.4 25.9
03:05 1023 30.21 852 25.16 10.2 50.3 38 -3.5 25.6
03:10 1023 30.21 852 25.16 10.3 50.5 37 -3.8 25.2
03:15 1023 30.21 852 25.16 10.8 51.4 34 -4.3 24.3
03:20 1023 30.21 852 25.16 10.6 51 37 -3.7 25.4
03:25 1023 30.21 852 25.16 10.1 50.2 36 -4.2 24.4
03:30 1023 30.21 852 25.16 10.2 50.3 37 -3.9 25
03:35 1023 30.21 852 25.16 10.2 50.3 36 -4.1 24.6
03:40 1023 30.21 853 25.19 10.5 50.8 35 -4.4 24
03:45 1023 30.21 853 25.19 10.8 51.5 33 -4.8 23.3
03:50 1023 30.21 853 25.19 11.2 52.2 32 -4.9 23.2
03:55 1024 30.24 853 25.19 11.4 52.6 34 -4 24.9
04:00 1024 30.24 853 25.19 11.4 52.5 34 -3.7 25.4
04:05 1024 30.24 853 25.19 10.7 51.3 35 -4 24.8
04:10 1024 30.24 853 25.19 10.5 51 37 -3.7 25.4
04:15 1024 30.24 853 25.19 10.2 50.3 38 -3.4 26
04:20 1024 30.24 853 25.19 9.9 49.9 41 -2.6 27.4
04:25 1024 30.24 853 25.19 9.2 48.6 44 -2.4 27.7
04:30 1024 30.24 853 25.19 9 48.1 42 -3.3 26.1
04:35 1024 30.24 853 25.19 9.5 49.2 39 -3.8 25.1
04:40 1024 30.24 853 25.19 9.8 49.7 39 -3.3 26.1
04:45 1024 30.24 853 25.19 10 50 36 -4.5 23.8
04:50 1024 30.24 853 25.19 10.1 50.1 40 -2.9 26.7
04:55 1024 30.24 853 25.19 9.7 49.5 38 -3.8 25.1
05:00 1024 30.24 853 25.19 9.9 49.7 38 -3.6 25.5
05:05 1024 30.24 853 25.19 10.1 50.1 35 -4.7 23.5
05:10 1024 30.24 853 25.19 10.3 50.6 35 -4.6 23.8
05:15 1024 30.24 853 25.19 10.5 50.9 34 -4.6 23.6
05:20 1024 30.24 853 25.19 10.4 50.8 35 -4.4 24.2
05:25 1024 30.24 853 25.19 10 50 37 -4 24.7
05:30 1024 30.24 853 25.19 9.8 49.7 37 -4.2 24.5
05:35 1024 30.24 853 25.19 9.8 49.6 39 -3.5 25.8
05:40 1024 30.24 854 25.22 9.5 49.1 39 -3.9 25.1
05:45 1024 30.24 854 25.22 9.2 48.6 39 -3.9 24.9
05:50 1024 30.24 854 25.22 9.5 49.2 38 -4.2 24.5
05:55 1024 30.24 854 25.22 10 49.9 36 -4.4 24.1
06:00 1025 30.27 854 25.22 9.8 49.7 37 -4 24.8
06:05 1025 30.27 854 25.22 9.7 49.4 37 -4.2 24.4
06:10 1025 30.27 854 25.22 9.9 49.9 35 -4.7 23.5
06:15 1025 30.27 854 25.22 10.2 50.3 35 -4.6 23.8
06:20 1025 30.27 854 25.22 10.1 50.1 37 -3.9 24.9
06:25 1025 30.27 854 25.22 9.7 49.5 37 -4.1 24.5
06:30 1025 30.27 854 25.22 9.9 49.9 36 -4.5 24
06:35 1025 30.27 854 25.22 10.1 50.1 35 -4.7 23.5
06:40 1025 30.27 854 25.22 10 50 37 -3.9 24.9
06:45 1025 30.27 854 25.22 9.8 49.7 38 -3.9 24.9
06:50 1025 30.27 854 25.22 9.6 49.2 39 -3.7 25.4
06:55 1025 30.27 854 25.22 9.4 49 40 -3.4 25.9
07:00 1025 30.27 854 25.22 9.4 49 39 -3.9 24.9
07:05 1025 30.27 854 25.22 9.3 48.7 41 -3.4 25.8
07:10 1025 30.27 854 25.22 9.3 48.7 39 -3.9 24.9
07:15 1025 30.27 854 25.22 9.4 48.9 39 -4 24.8
07:20 1025 30.27 854 25.22 9.5 49 40 -3.6 25.6
07:25 1025 30.27 854 25.22 9.2 48.6 39 -3.9 25.1
07:30 1025 30.27 854 25.22 9.1 48.4 40 -3.8 25.1
07:35 1025 30.27 854 25.22 9.3 48.7 39 -4 24.9
07:40 1025 30.27 854 25.22 9.4 49 39 -4 24.9
07:45 1025 30.27 854 25.22 9.7 49.5 38 -3.8 25.2
07:50 1025 30.27 855 25.25 9.7 49.4 39 -3.5 25.7
07:55 1025 30.27 855 25.25 9.6 49.3 40 -3.4 25.9
08:00 1025 30.27 855 25.25 9.7 49.5 39 -3.6 25.5
08:05 1025 30.27 855 25.25 9.8 49.7 39 -3.4 25.8
08:10 1025 30.27 855 25.25 10 50.1 39 -3.2 26.3
08:15 1025 30.27 855 25.25 10.4 50.8 38 -3.3 26.1
08:20 1026 30.3 855 25.25 10.7 51.2 37 -3.3 26
08:25 1026 30.3 855 25.25 10.9 51.7 37 -3.1 26.4
08:30 1026 30.3 855 25.25 11.2 52.1 35 -3.6 25.5
08:35 1026 30.3 855 25.25 11.5 52.6 35 -3.5 25.8
08:40 1026 30.3 855 25.25 11.8 53.2 34 -3.5 25.6
08:45 1026 30.3 855 25.25 12.1 53.8 34 -3.1 26.4
08:50 1026 30.3 855 25.25 12.6 54.6 33 -3.1 26.4
08:55 1026 30.3 855 25.25 13.2 55.7 33 -2.8 27
09:00 1026 30.3 855 25.25 13.3 56 32 -3.1 26.5
09:05 1026 30.3 855 25.25 13.6 56.6 32 -2.6 27.2
09:10 1026 30.3 855 25.25 14.4 57.8 30 -3.1 26.3
09:15 1026 30.3 855 25.25 15.1 59.2 29 -2.9 26.8
09:20 1026 30.3 855 25.25 15.4 59.7 28 -2.8 27
09:25 1026 30.3 855 25.25 15.7 60.2 28 -2.7 27.1
09:30 1026 30.3 855 25.25 16.2 61.2 28 -2.4 27.7
09:35 1026 30.3 855 25.25 16.7 62 27 -2.1 28.2
09:40 1026 30.3 855 25.25 16.2 61.1 29 -1.9 28.6
09:45 1026 30.3 855 25.25 16.5 61.8 27 -2.3 27.9
09:50 1026 30.3 855 25.25 16.3 61.4 26 -3 26.6
09:55 1026 30.3 855 25.25 16.1 61 27 -3 26.6
10:00 1026 30.3 855 25.25 16.9 62.4 25 -3.2 26.3
10:05 1026 30.3 855 25.25 17.7 63.9 25 -2.7 27.2
10:10 1026 30.3 855 25.25 18 64.4 25 -2 28.4
10:15 1026 30.3 855 25.25 18 64.3 26 -1.9 28.6
10:20 1026 30.3 855 25.25 18.7 65.7 23 -2.5 27.6
10:25 1026 30.3 855 25.25 19 66.2 23 -2.2 28
10:30 1026 30.3 855 25.25 18.8 65.8 23 -2.4 27.7
10:35 1026 30.3 855 25.25 18.7 65.7 23 -2.7 27.1
10:40 1026 30.3 855 25.25 19.2 66.5 22 -2.7 27.2
10:45 1026 30.3 855 25.25 19.8 67.6 22 -2.3 27.9
10:50 1026 30.3 855 25.25 20.3 68.6 22 -1.7 28.9
10:55 1026 30.3 855 25.25 20.3 68.6 22 -1.9 28.6
11:00 1026 30.3 855 25.25 20 68.1 23 -1.4 29.5
11:05 1026 30.3 855 25.25 19.4 66.8 24 -1.8 28.8
11:10 1026 30.3 855 25.25 20.3 68.5 22 -2 28.4
11:15 1026 30.3 855 25.25 20.8 69.5 21 -2.1 28.3
11:20 1026 30.3 855 25.25 20.7 69.2 22 -1.8 28.7
11:25 1026 30.3 855 25.25 20.7 69.2 22 -1.3 29.6
11:30 1026 30.3 855 25.25 21.2 70.1 21 -1.6 29
11:35 1026 30.3 855 25.25 21.6 70.9 20 -2.4 27.7
11:40 1026 30.3 855 25.25 21.4 70.5 21 -1.9 28.6
11:45 1026 30.3 855 25.25 21.7 71.1 19 -2.6 27.3
11:50 1026 30.3 855 25.25 21.7 71.1 20 -1.8 28.7
11:55 1026 30.3 855 25.25 20.4 68.7 21 -2.5 27.6
12:00 1026 30.3 855 25.25 19.8 67.6 22 -2.4 27.6
12:05 1026 30.3 855 25.25 20 67.9 21 -2.8 27
12:10 1026 30.3 855 25.25 20.5 68.9 19 -3.4 25.8
12:15 1026 30.3 855 25.25 21.6 70.9 18 -3.3 26.1
12:20 1026 30.3 855 25.25 22.6 72.6 19 -2.4 27.7
12:25 1026 30.3 855 25.25 21.5 70.7 20 -2.2 28
12:30 1026 30.3 855 25.25 21.5 70.6 19 -3.2 26.2
12:35 1026 30.3 855 25.25 22.5 72.5 18 -2.9 26.7
12:40 1025 30.27 855 25.25 22.9 73.2 16 -4 24.7
12:45 1025 30.27 855 25.25 23.2 73.8 16 -3.9 25
12:50 1025 30.27 855 25.25 23 73.4 16 -4 24.9
12:55 1025 30.27 855 25.25 22.2 71.9 19 -2.7 27.2
13:00 1025 30.27 855 25.25 22 71.6 19 -2.5 27.5
13:05 1025 30.27 854 25.22 22.4 72.3 16 -4.6 23.6
13:10 1025 30.27 855 25.25 23.2 73.8 15 -4.4 24
13:15 1025 30.27 854 25.22 23.7 74.6 15 -4.1 24.6
13:20 1025 30.27 854 25.22 23.1 73.6 16 -4.2 24.5
13:25 1025 30.27 854 25.22 23.1 73.6 17 -3 26.6
13:30 1025 30.27 854 25.22 23.3 74 15 -4.3 24.3
13:35 1025 30.27 854 25.22 23.5 74.3 15 -4.3 24.3
13:40 1025 30.27 854 25.22 23.8 74.9 16 -3.5 25.7
13:45 1025 30.27 854 25.22 23.6 74.5 15 -4 24.7
13:50 1025 30.27 854 25.22 22.8 73 18 -2.7 27.1
13:55 1025 30.27 854 25.22 23.6 74.4 15 -4.4 24
14:00 1025 30.27 854 25.22 24.6 76.2 15 -3.6 25.4
14:05 1025 30.27 854 25.22 24.1 75.4 15 -3.5 25.7
14:10 1025 30.27 854 25.22 23.2 73.7 15 -4.4 24.1
14:15 1025 30.27 854 25.22 23.6 74.4 15 -4 24.8
14:20 1025 30.27 854 25.22 24.2 75.6 14 -4.5 23.9
14:25 1025 30.27 854 25.22 24.6 76.4 14 -4.1 24.7
14:30 1025 30.27 854 25.22 24.5 76.2 15 -3.3 26
14:35 1025 30.27 854 25.22 25.1 77.1 14 -4.1 24.6
14:40 1025 30.27 854 25.22 25.5 77.8 13 -4.5 24
14:45 1025 30.27 854 25.22 25 76.9 14 -3.8 25.1
14:50 1025 30.27 854 25.22 24.5 76.1 14 -4.4 24.1
14:55 1024 30.24 854 25.22 24.2 75.5 14 -5.2 22.7
15:00 1024 30.24 854 25.22 24.8 76.7 14 -4.1 24.6
15:05 1024 30.24 854 25.22 24.7 76.5 14 -4.3 24.2
15:10 1024 30.24 854 25.22 24.8 76.6 13 -5.1 22.9
15:15 1024 30.24 854 25.22 25 77 14 -4.3 24.3
15:20 1024 30.24 854 25.22 25.2 77.4 13 -5.1 22.9
15:25 1024 30.24 854 25.22 25.7 78.3 13 -4.5 24
15:30 1024 30.24 854 25.22 25.5 78 13 -4.7 23.5
15:35 1024 30.24 853 25.19 25.5 77.9 13 -4.4 24.1
15:40 1024 30.24 853 25.19 25.4 77.8 13 -4.5 24
15:45 1024 30.24 853 25.19 25.6 78 13 -4.5 23.9
15:50 1024 30.24 853 25.19 26.1 78.9 13 -4.4 24.1
15:55 1024 30.24 853 25.19 25.7 78.2 13 -4.1 24.7
16:00 1024 30.24 853 25.19 25.3 77.6 13 -4.7 23.5
16:05 1024 30.24 853 25.19 25.9 78.6 12 -5 23.1
16:10 1024 30.24 853 25.19 25.9 78.6 12 -5 22.9
16:15 1024 30.24 853 25.19 25.5 77.9 13 -4.9 23.2
16:20 1024 30.24 853 25.19 25.5 78 13 -4.5 23.9
16:25 1024 30.24 853 25.19 25.7 78.3 13 -4.7 23.5
16:30 1024 30.24 853 25.19 26.1 79 12 -4.9 23.2
16:35 1024 30.24 853 25.19 26.2 79.2 14 -3.5 25.7
16:40 1024 30.24 853 25.19 25.8 78.4 13 -4.7 23.6
16:45 1024 30.24 853 25.19 25.9 78.7 12 -5.6 22
16:50 1024 30.24 853 25.19 25.5 77.8 12 -5.3 22.4
16:55 1024 30.24 853 25.19 25.7 78.2 12 -5.4 22.3
17:00 1024 30.24 853 25.19 26.2 79.1 12 -5 23
17:05 1024 30.24 853 25.19 26.5 79.7 12 -5 22.9
17:10 1024 30.24 853 25.19 26.1 78.9 12 -4.8 23.3
17:15 1024 30.24 853 25.19 26 78.7 12 -5.7 21.7
17:20 1024 30.24 853 25.19 25.9 78.6 12 -5 22.9
17:25 1024 30.24 853 25.19 26 78.7 13 -4.8 23.3
17:30 1024 30.24 853 25.19 25.9 78.6 13 -4.5 24
17:35 1024 30.24 853 25.19 25.2 77.3 13 -4.7 23.6
17:40 1024 30.24 853 25.19 25.2 77.3 13 -4.9 23.2
17:45 1024 30.24 853 25.19 25.1 77.2 13 -4.8 23.4
17:50 1024 30.24 853 25.19 25.2 77.3 13 -4.9 23.1
17:55 1024 30.24 853 25.19 25.4 77.8 13 -4.9 23.1
18:00 1023 30.21 853 25.19 25.5 77.9 13 -4.6 23.8
18:05 1023 30.21 853 25.19 25.5 77.9 13 -4.6 23.7
18:10 1023 30.21 853 25.19 25.6 78 13 -4.2 24.4
18:15 1023 30.21 853 25.19 25.7 78.2 13 -4.3 24.3
18:20 1023 30.21 853 25.19 25.7 78.3 13 -4.5 23.8
18:25 1023 30.21 853 25.19 25 77.1 13 -4.8 23.3
18:30 1023 30.21 853 25.19 24.5 76.2 14 -4.6 23.8
18:35 1023 30.21 853 25.19 24.3 75.7 14 -4.8 23.3
18:40 1023 30.21 853 25.19 24 75.2 14 -4.8 23.3
18:45 1023 30.21 853 25.19 23.6 74.4 14 -5.3 22.5
18:50 1023 30.21 853 25.19 23.5 74.2 14 -5.3 22.4
18:55 1023 30.21 852 25.16 23.4 74.2 15 -4.4 24
19:00 1023 30.21 852 25.16 23.5 74.2 15 -4.6 23.7
19:05 1023 30.21 852 25.16 23.4 74.1 18 -2.4 27.6
19:10 1023 30.21 852 25.16 23.3 73.9 16 -3.4 25.8
19:15 1023 30.21 852 25.16 23.2 73.8 15 -4.5 23.9
19:20 1023 30.21 852 25.16 23.2 73.8 16 -4.1 24.5
19:25 1023 30.21 852 25.16 23.1 73.6 16 -3.8 25.2
19:30 1023 30.21 852 25.16 22.7 72.8 20 -1 30.2
19:35 1023 30.21 852 25.16 22.4 72.4 20 -1.3 29.7
19:40 1023 30.21 852 25.16 22 71.5 28 2.6 36.7
19:45 1023 30.21 852 25.16 20.8 69.4 27 1.1 34
19:50 1023 30.21 852 25.16 20.4 68.6 27 0.8 33.5
19:55 1023 30.21 852 25.16 19.6 67.2 28 0.8 33.5
20:00 1023 30.21 852 25.16 18.6 65.4 31 1 33.9
20:05 1023 30.21 852 25.16 17.9 64.2 28 -1 30.3
20:10 1023 30.21 852 25.16 17.5 63.4 32 0.6 33.1
20:15 1023 30.21 852 25.16 17 62.6 27 -1.9 28.7
20:20 1023 30.21 852 25.16 16.8 62.2 28 -1.8 28.8
20:25 1023 30.21 852 25.16 16.8 62.2 26 -2.9 26.8
20:30 1023 30.21 852 25.16 16.8 62.2 32 0.1 32.3
20:35 1023 30.21 852 25.16 16.3 61.4 31 -0.6 30.8
20:40 1023 30.21 853 25.19 15.5 59.9 30 -1.7 29
20:45 1023 30.21 853 25.19 15.5 59.9 26 -3.8 25.1
20:50 1023 30.21 853 25.19 15.9 60.7 23 -5.2 22.6
20:55 1023 30.21 853 25.19 16.5 61.6 23 -4.4 24
21:00 1023 30.21 853 25.19 16.3 61.3 24 -4.3 24.2
21:05 1023 30.21 853 25.19 16.2 61.1 21 -6.2 20.9
21:10 1023 30.21 853 25.19 16.1 61 22 -5.3 22.4
21:15 1023 30.21 853 25.19 15.8 60.4 22 -5.7 21.7
21:20 1023 30.21 853 25.19 15.7 60.3 21 -6.4 20.4
21:25 1023 30.21 853 25.19 15.9 60.6 21 -6.3 20.7
21:30 1023 30.21 853 25.19 15.8 60.5 23 -5.3 22.4
21:35 1023 30.21 853 25.19 16 60.7 20 -6.9 19.5
21:40 1023 30.21 853 25.19 16 60.7 22 -5.7 21.7
21:45 1023 30.21 853 25.19 15.8 60.4 20 -6.8 19.8
21:50 1023 30.21 853 25.19 15.7 60.3 20 -6.8 19.7
21:55 1023 30.21 853 25.19 15.6 60.1 21 -6.7 20
22:00 1023 30.21 853 25.19 15.6 60.1 19 -7.6 18.3
22:05 1023 30.21 853 25.19 15.9 60.6 19 -7.5 18.6
22:10 1023 30.21 853 25.19 16 60.7 19 -7.6 18.3
22:15 1023 30.21 853 25.19 16 60.8 19 -7.3 18.9
22:20 1023 30.21 853 25.19 15.9 60.5 20 -7.2 19
22:25 1023 30.21 853 25.19 15.8 60.4 20 -7 19.3
22:30 1023 30.21 853 25.19 15.3 59.5 21 -7 19.3
22:35 1023 30.21 852 25.16 15.1 59.3 21 -6.8 19.7
22:40 1023 30.21 852 25.16 14.9 58.9 23 -5.7 21.8
22:45 1023 30.21 852 25.16 14.8 58.7 21 -7.2 19.1
22:50 1023 30.21 852 25.16 14.8 58.7 21 -7.5 18.4
22:55 1023 30.21 852 25.16 15.1 59.2 21 -7.1 19.2
23:00 1023 30.21 852 25.16 15.1 59.1 21 -7.3 18.8
23:05 1023 30.21 852 25.16 14.8 58.6 27 -3.8 25.1
23:10 1023 30.21 852 25.16 14.6 58.3 21 -7.2 19
23:15 1023 30.21 852 25.16 14.7 58.4 21 -7.5 18.6
23:20 1023 30.21 852 25.16 14.7 58.5 20 -8 17.7
23:25 1023 30.21 852 25.16 15.1 59.1 27 -3.5 25.7
23:30 1023 30.21 852 25.16 14.9 58.8 21 -7.4 18.8
23:35 1023 30.21 852 25.16 14.6 58.4 25 -4.9 23.1
23:40 1023 30.21 853 25.19 14.7 58.4 21 -7.5 18.5
23:45 1023 30.21 853 25.19 14.7 58.5 20 -7.8 18
23:50 1023 30.21 853 25.19 14.9 58.8 20 -7.6 18.3
23:55 1023 30.21 853 25.19 15.4 59.6 18 -8.5 16.7
24:00 1023 30.21 853 25.19 15.2 59.4 19 -8 17.7